createdAt,value
2023-04-15T00:02:18.653Z,99543.59
2023-04-15T00:04:48.799Z,99542.53
2023-04-15T00:07:18.620Z,99539.75
2023-04-15T00:09:48.324Z,99541.34
2023-04-15T00:12:18.018Z,99542.06
2023-04-15T00:14:51.233Z,99538.38
2023-04-15T00:17:21.198Z,99533.13
2023-04-15T00:19:50.921Z,99535.66
2023-04-15T00:22:20.965Z,99533.13
2023-04-15T00:24:50.937Z,99544.56
2023-04-15T00:27:20.601Z,99539.38
2023-04-15T00:29:52.861Z,99536.84
2023-04-15T00:32:23.738Z,99529.97
2023-04-15T00:34:53.916Z,99541.41
2023-04-15T00:37:24.022Z,99536.22
2023-04-15T00:39:54.716Z,99534.50
2023-04-15T00:42:24.563Z,99532.09
2023-04-15T00:44:57.403Z,99532.91
2023-04-15T00:47:27.334Z,99533.00
2023-04-15T00:49:57.016Z,99532.00
2023-04-15T00:52:26.794Z,99527.59
2023-04-15T00:54:56.533Z,99533.84
2023-04-15T00:57:26.284Z,99539.19
2023-04-15T00:59:59.177Z,99535.78
2023-04-15T01:02:29.164Z,99532.41
2023-04-15T01:04:59.620Z,99536.88
2023-04-15T01:07:29.371Z,99536.03
2023-04-15T01:09:59.183Z,99528.19
2023-04-15T01:12:30.079Z,99532.66
2023-04-15T01:15:02.450Z,99531.75
2023-04-15T01:17:32.912Z,99524.75
2023-04-15T01:20:02.723Z,99528.41
2023-04-15T01:22:33.502Z,99531.03
2023-04-15T01:25:05.037Z,99529.31
2023-04-15T01:27:38.168Z,99522.34
2023-04-15T01:30:09.690Z,99524.06
2023-04-15T01:32:39.789Z,99524.91
2023-04-15T01:35:10.141Z,99530.16
2023-04-15T01:37:39.991Z,99527.59
2023-04-15T01:40:11.196Z,99531.22
2023-04-15T01:42:43.486Z,99527.66
2023-04-15T01:45:14.200Z,99529.38
2023-04-15T01:47:43.963Z,99524.19
2023-04-15T01:50:14.078Z,99525.03
2023-04-15T01:52:43.976Z,99524.06
2023-04-15T01:55:14.251Z,99518.78
2023-04-15T01:57:46.716Z,99522.25
2023-04-15T02:00:17.694Z,99518.72
2023-04-15T02:02:47.611Z,99515.34
2023-04-15T02:05:17.508Z,99524.31
2023-04-15T02:07:51.048Z,99521.75
2023-04-15T02:10:21.115Z,99523.59
2023-04-15T02:12:54.081Z,99526.34
2023-04-15T02:15:23.823Z,99519.41
2023-04-15T02:17:55.500Z,99520.44
2023-04-15T02:20:25.583Z,99531.06
2023-04-15T02:22:55.306Z,99533.78
2023-04-15T02:25:24.981Z,99536.47
2023-04-15T02:27:57.282Z,99534.75
2023-04-15T02:30:27.338Z,99534.88
2023-04-15T02:32:57.065Z,99540.28
2023-04-15T02:35:28.279Z,99538.81
2023-04-15T02:37:58.657Z,99542.63
2023-04-15T02:40:29.133Z,99548.25
2023-04-15T02:43:01.575Z,99547.84
2023-04-15T02:45:31.829Z,99547.53
2023-04-15T02:48:06.632Z,99553.31
2023-04-15T02:50:37.972Z,99556.44
2023-04-15T02:53:07.708Z,99552.56
2023-04-15T02:55:37.529Z,99560.91
2023-04-15T02:58:10.124Z,99553.47
2023-04-15T03:00:40.193Z,99558.28
2023-04-15T03:03:11.040Z,99558.53
2023-04-15T03:05:41.760Z,99559.41
2023-04-15T03:08:11.563Z,99558.53
2023-04-15T03:10:41.345Z,99555.00
2023-04-15T03:13:13.644Z,99560.31
2023-04-15T03:15:43.808Z,99558.53
2023-04-15T03:18:13.728Z,99558.66
2023-04-15T03:20:44.131Z,99562.38
2023-04-15T03:23:13.979Z,99564.34
2023-04-15T03:25:43.695Z,99567.22
2023-04-15T03:28:15.979Z,99564.00
2023-04-15T03:30:45.882Z,99571.28
2023-04-15T03:33:16.026Z,99575.09
2023-04-15T03:35:45.797Z,99570.09
2023-04-15T03:38:15.835Z,99580.00
2023-04-15T03:40:45.792Z,99581.16
2023-04-15T03:43:18.051Z,99580.50
2023-04-15T03:45:47.723Z,99582.44
2023-04-15T03:48:18.365Z,99589.59
2023-04-15T03:50:48.534Z,99594.19
2023-04-15T03:53:18.260Z,99596.06
2023-04-15T03:55:47.961Z,99598.91
2023-04-15T03:58:20.770Z,99593.88
2023-04-15T04:00:50.583Z,99597.50
2023-04-15T04:03:20.608Z,99599.44
2023-04-15T04:05:50.616Z,99602.22
2023-04-15T04:08:21.844Z,99598.91
2023-04-15T04:10:51.537Z,99598.19
2023-04-15T04:13:23.815Z,99597.50
2023-04-15T04:15:53.586Z,99601.09
2023-04-15T04:18:23.466Z,99605.56
2023-04-15T04:20:53.184Z,99607.38
2023-04-15T04:23:22.882Z,99610.09
2023-04-15T04:25:52.822Z,99608.47
2023-04-15T04:28:25.137Z,99609.47
2023-04-15T04:30:54.887Z,99610.41
2023-04-15T04:33:24.615Z,99611.28
2023-04-15T04:35:54.325Z,99615.66
2023-04-15T04:38:24.016Z,99620.94
2023-04-15T04:40:53.818Z,99624.44
2023-04-15T04:43:26.251Z,99626.25
2023-04-15T04:45:56.066Z,99631.59
2023-04-15T04:48:26.120Z,99638.59
2023-04-15T04:50:56.153Z,99642.13
2023-04-15T04:53:25.902Z,99630.78
2023-04-15T04:55:55.646Z,99634.22
2023-04-15T04:58:27.992Z,99635.91
2023-04-15T05:00:57.804Z,99641.97
2023-04-15T05:03:27.651Z,99634.09
2023-04-15T05:05:57.410Z,99638.44
2023-04-15T05:08:27.129Z,99647.09
2023-04-15T05:10:56.837Z,99643.56
2023-04-15T05:13:30.223Z,99645.22
2023-04-15T05:16:00.147Z,99646.03
2023-04-15T05:18:30.025Z,99651.22
2023-04-15T05:20:59.958Z,99643.34
2023-04-15T05:23:29.742Z,99649.34
2023-04-15T05:25:59.493Z,99656.16
2023-04-15T05:28:31.971Z,99655.03
2023-04-15T05:31:01.851Z,99655.66
2023-04-15T05:33:31.563Z,99657.97
2023-04-15T05:36:01.409Z,99663.69
2023-04-15T05:38:31.259Z,99665.78
2023-04-15T05:41:01.065Z,99663.25
2023-04-15T05:43:33.341Z,99664.97
2023-04-15T05:46:03.109Z,99664.66
2023-04-15T05:48:32.848Z,99662.41
2023-04-15T05:51:02.577Z,99667.09
2023-04-15T05:53:32.258Z,99662.34
2023-04-15T05:56:01.971Z,99663.69
2023-04-15T05:58:34.302Z,99669.41
2023-04-15T06:01:04.018Z,99673.34
2023-04-15T06:03:33.898Z,99672.13
2023-04-15T06:06:03.840Z,99673.34
2023-04-15T06:08:34.024Z,99668.44
2023-04-15T06:11:03.818Z,99677.72
2023-04-15T06:13:36.088Z,99682.72
2023-04-15T06:16:05.869Z,99694.47
2023-04-15T06:18:35.572Z,99706.25
2023-04-15T06:21:05.281Z,99692.97
2023-04-15T06:23:37.597Z,99702.13
2023-04-15T06:26:07.424Z,99701.56
2023-04-15T06:28:39.717Z,99693.69
2023-04-15T06:31:09.469Z,99695.03
2023-04-15T06:33:39.744Z,99697.00
2023-04-15T06:36:10.091Z,99697.41
2023-04-15T06:38:39.994Z,99698.91
2023-04-15T06:41:09.955Z,99695.94
2023-04-15T06:43:42.525Z,99698.97
2023-04-15T06:46:12.552Z,99697.63
2023-04-15T06:48:42.613Z,99713.16
2023-04-15T06:51:13.064Z,99707.81
2023-04-15T06:53:44.023Z,99713.63
2023-04-15T06:56:13.769Z,99722.81
2023-04-15T06:58:46.008Z,99720.63
2023-04-15T07:01:16.788Z,99719.31
2023-04-15T07:03:46.628Z,99725.38
2023-04-15T07:06:16.338Z,99723.25
2023-04-15T07:08:45.993Z,99733.78
2023-04-15T07:11:15.680Z,99740.97
2023-04-15T07:13:47.961Z,99739.81
2023-04-15T07:16:17.746Z,99748.13
2023-04-15T07:18:47.483Z,99747.22
2023-04-15T07:21:17.371Z,99750.59
2023-04-15T07:23:47.528Z,99763.56
2023-04-15T07:26:17.242Z,99753.50
2023-04-15T07:28:49.750Z,99767.47
2023-04-15T07:31:20.071Z,99763.50
2023-04-15T07:33:49.847Z,99769.25
2023-04-15T07:36:20.010Z,99776.22
2023-04-15T07:38:49.682Z,99774.44
2023-04-15T07:41:19.484Z,99774.81
2023-04-15T07:43:51.985Z,99784.19
2023-04-15T07:46:21.734Z,99786.75
2023-04-15T07:48:51.460Z,99786.75
2023-04-15T07:51:21.188Z,99791.34
2023-04-15T07:53:51.295Z,99791.50
2023-04-15T07:56:21.033Z,99797.44
2023-04-15T07:58:53.344Z,99795.66
2023-04-15T08:01:23.090Z,99797.69
2023-04-15T08:03:53.365Z,99812.50
2023-04-15T08:06:23.364Z,99803.28
2023-04-15T08:08:53.080Z,99808.78
2023-04-15T08:11:23.251Z,99827.09
2023-04-15T08:13:55.572Z,99828.25
2023-04-15T08:16:28.016Z,99812.84
2023-04-15T08:18:58.985Z,99828.13
2023-04-15T08:21:31.076Z,99828.75
2023-04-15T08:24:01.850Z,99819.78
2023-04-15T08:26:31.583Z,99828.72
2023-04-15T08:29:04.151Z,99836.63
2023-04-15T08:31:35.240Z,99829.31
2023-04-15T08:34:04.982Z,99831.13
2023-04-15T08:36:35.083Z,99835.56
2023-04-15T08:39:05.101Z,99835.28
2023-04-15T08:41:43.438Z,99847.41
2023-04-15T08:44:16.986Z,99848.84
2023-04-15T08:46:47.705Z,99848.47
2023-04-15T08:49:18.706Z,99845.59
2023-04-15T08:51:49.143Z,99859.38
2023-04-15T08:54:18.948Z,99856.00
2023-04-15T08:56:49.101Z,99856.84
2023-04-15T08:59:22.034Z,99846.06
2023-04-15T09:01:52.738Z,99846.59
2023-04-15T09:04:22.454Z,99852.06
2023-04-15T09:06:52.376Z,99851.31
2023-04-15T09:09:22.785Z,99857.69
2023-04-15T09:11:52.846Z,99853.78
2023-04-15T09:14:25.477Z,99863.13
2023-04-15T09:17:03.066Z,99878.47
2023-04-15T09:19:33.768Z,99888.69
2023-04-15T09:22:03.486Z,99873.81
2023-04-15T09:24:41.062Z,99882.41
2023-04-15T09:27:11.294Z,99879.41
2023-04-15T09:29:44.264Z,99881.50
2023-04-15T09:32:15.712Z,99874.78
2023-04-15T09:34:46.101Z,99877.63
2023-04-15T09:37:31.529Z,99875.50
2023-04-15T09:40:01.915Z,99883.72
2023-04-15T09:42:32.668Z,99874.25
2023-04-15T09:45:14.293Z,99886.81
2023-04-15T09:47:44.035Z,99898.03
2023-04-15T09:50:14.816Z,99895.63
2023-04-15T09:52:45.749Z,99901.16
2023-04-15T09:55:16.229Z,99899.06
2023-04-15T09:57:47.406Z,99907.59
2023-04-15T10:00:20.270Z,99910.16
2023-04-15T10:02:50.178Z,99919.53
2023-04-15T10:05:20.702Z,99923.97
2023-04-15T10:07:50.492Z,99925.56
2023-04-15T10:10:20.810Z,99918.44
2023-04-15T10:12:51.083Z,99934.31
2023-04-15T10:15:24.128Z,99927.66
2023-04-15T10:17:54.084Z,99936.88
2023-04-15T10:20:24.037Z,99944.22
2023-04-15T10:22:54.417Z,99942.16
2023-04-15T10:25:24.643Z,99940.09
2023-04-15T10:27:54.952Z,99941.69
2023-04-15T10:30:27.321Z,99942.81
2023-04-15T10:32:57.245Z,99937.50
2023-04-15T10:35:27.293Z,99945.94
2023-04-15T10:37:56.987Z,99943.38
2023-04-15T10:40:31.814Z,99937.59
2023-04-15T10:43:02.680Z,99958.13
2023-04-15T10:45:36.952Z,99955.00
2023-04-15T10:48:08.111Z,99958.34
2023-04-15T10:50:38.022Z,99959.09
2023-04-15T10:53:07.924Z,99962.59
2023-04-15T10:55:38.054Z,99966.19
2023-04-15T10:58:07.891Z,99960.78
2023-04-15T11:00:40.675Z,99965.72
2023-04-15T11:03:12.231Z,99964.97
2023-04-15T11:05:56.054Z,99955.78
2023-04-15T11:08:59.055Z,99965.94
2023-04-15T11:12:09.025Z,99968.00
2023-04-15T11:14:44.302Z,99978.44
2023-04-15T11:17:16.629Z,99966.84
2023-04-15T11:19:47.090Z,99979.41
2023-04-15T11:22:16.782Z,99978.38
2023-04-15T11:24:53.218Z,99976.03
2023-04-15T11:27:26.335Z,99985.53
2023-04-15T11:29:56.022Z,99989.41
2023-04-15T11:32:28.353Z,99982.66
2023-04-15T11:34:58.639Z,99982.25
2023-04-15T11:37:32.395Z,99990.25
2023-04-15T11:40:02.164Z,99983.41
2023-04-15T11:42:42.773Z,99999.72
2023-04-15T11:45:17.937Z,99993.44
2023-04-15T11:47:50.275Z,100005.00
2023-04-15T11:50:21.309Z,100007.63
2023-04-15T11:52:57.991Z,100005.63
2023-04-15T11:55:28.269Z,100003.28
2023-04-15T11:58:10.985Z,100009.94
2023-04-15T12:00:42.724Z,100020.19
2023-04-15T12:03:22.051Z,100019.75
2023-04-15T12:06:15.145Z,100028.75
2023-04-15T12:09:01.459Z,100027.19
2023-04-15T12:11:33.764Z,100033.31
2023-04-15T12:14:08.362Z,100034.31
2023-04-15T12:16:48.505Z,100053.94
2023-04-15T12:19:26.325Z,100049.84
2023-04-15T12:22:00.485Z,100056.81
2023-04-15T12:24:30.611Z,100061.97
2023-04-15T12:27:01.950Z,100067.13
2023-04-15T12:29:32.766Z,100057.97
2023-04-15T12:32:08.363Z,100076.31
2023-04-15T12:34:41.966Z,100075.09
2023-04-15T12:37:12.504Z,100081.13
2023-04-15T12:39:43.934Z,100092.38
2023-04-15T12:42:14.008Z,100092.97
2023-04-15T12:44:44.003Z,100091.56
2023-04-15T12:47:16.020Z,100106.06
2023-04-15T12:49:49.758Z,100099.34
2023-04-15T12:52:19.456Z,100104.09
2023-04-15T12:54:49.135Z,100112.28
2023-04-15T12:57:18.844Z,100114.28
2023-04-15T12:59:48.520Z,100123.22
2023-04-15T13:02:18.922Z,100126.88
2023-04-15T13:04:51.404Z,100129.69
2023-04-15T13:07:21.181Z,100127.09
2023-04-15T13:09:50.908Z,100134.16
2023-04-15T13:12:20.588Z,100135.91
2023-04-15T13:14:50.274Z,100146.47
2023-04-15T13:17:21.480Z,100146.63
2023-04-15T13:19:53.803Z,100154.72
2023-04-15T13:22:23.530Z,100157.50
2023-04-15T13:24:53.255Z,100153.25
2023-04-15T13:27:23.425Z,100157.78
2023-04-15T13:29:53.181Z,100157.91
2023-04-15T13:32:22.924Z,100170.34
2023-04-15T13:34:56.376Z,100167.63
2023-04-15T13:37:29.569Z,100173.66
2023-04-15T13:39:59.596Z,100171.78
2023-04-15T13:42:29.854Z,100177.75
2023-04-15T13:44:59.587Z,100179.09
2023-04-15T13:47:29.418Z,100184.84
2023-04-15T13:50:01.779Z,100174.81
2023-04-15T13:52:31.467Z,100174.16
2023-04-15T13:55:07.281Z,100177.63
2023-04-15T13:57:48.635Z,100165.78
2023-04-15T14:00:19.007Z,100171.03
2023-04-15T14:02:48.960Z,100174.69
2023-04-15T14:05:21.397Z,100166.56
2023-04-15T14:07:51.104Z,100186.69
2023-04-15T14:10:21.077Z,100189.16
2023-04-15T14:12:50.879Z,100194.00
2023-04-15T14:15:20.602Z,100187.38
2023-04-15T14:17:50.427Z,100197.91
2023-04-15T14:20:22.937Z,100197.03
2023-04-15T14:22:52.814Z,100203.69
2023-04-15T14:25:30.847Z,100199.03
2023-04-15T14:28:03.679Z,100220.72
2023-04-15T14:30:33.552Z,100206.25
2023-04-15T14:33:03.931Z,100211.03
2023-04-15T14:35:36.491Z,100204.09
2023-04-15T14:38:06.332Z,100216.81
2023-04-15T14:40:36.553Z,100215.97
2023-04-15T14:43:06.399Z,100222.47
2023-04-15T14:45:36.504Z,100225.94
2023-04-15T14:48:06.730Z,100229.50
2023-04-15T14:50:39.146Z,100225.09
2023-04-15T14:53:08.849Z,100240.97
2023-04-15T14:55:38.573Z,100248.81
2023-04-15T14:58:09.497Z,100239.63
2023-04-15T15:00:42.035Z,100250.22
2023-04-15T15:03:13.726Z,100247.28
2023-04-15T15:05:47.922Z,100255.09
2023-04-15T15:08:17.496Z,100248.88
2023-04-15T15:10:48.653Z,100253.53
2023-04-15T15:13:19.859Z,100256.63
2023-04-15T15:15:49.946Z,100271.28
2023-04-15T15:18:20.121Z,100271.66
2023-04-15T15:20:52.573Z,100274.63
2023-04-15T15:23:22.311Z,100273.97
2023-04-15T15:25:51.981Z,100281.13
2023-04-15T15:28:21.982Z,100283.06
2023-04-15T15:30:51.729Z,100283.97
2023-04-15T15:33:21.685Z,100293.94
2023-04-15T15:35:54.090Z,100291.59
2023-04-15T15:38:23.946Z,100290.13
2023-04-15T15:40:53.627Z,100297.34
2023-04-15T15:43:23.317Z,100301.91
2023-04-15T15:45:55.613Z,100302.06
2023-04-15T15:48:25.900Z,100306.66
2023-04-15T15:50:58.478Z,100303.25
2023-04-15T15:53:28.210Z,100305.94
2023-04-15T15:55:57.924Z,100310.25
2023-04-15T15:58:27.843Z,100318.03
2023-04-15T16:00:58.753Z,100311.84
2023-04-15T16:03:29.575Z,100318.09
2023-04-15T16:06:01.906Z,100312.00
2023-04-15T16:08:31.623Z,100329.66
2023-04-15T16:11:01.422Z,100326.09
2023-04-15T16:13:31.295Z,100327.78
2023-04-15T16:16:01.004Z,100323.31
2023-04-15T16:18:30.742Z,100331.13
2023-04-15T16:21:04.006Z,100343.28
2023-04-15T16:23:34.028Z,100330.91
2023-04-15T16:26:03.761Z,100345.81
2023-04-15T16:28:33.572Z,100342.25
2023-04-15T16:31:03.252Z,100341.22
2023-04-15T16:33:32.974Z,100337.47
2023-04-15T16:36:05.259Z,100344.38
2023-04-15T16:38:34.991Z,100346.03
2023-04-15T16:41:04.867Z,100356.47
2023-04-15T16:43:34.621Z,100353.81
2023-04-15T16:46:04.284Z,100359.03
2023-04-15T16:48:34.043Z,100356.38
2023-04-15T16:51:06.350Z,100361.66
2023-04-15T16:53:36.107Z,100365.22
2023-04-15T16:56:05.789Z,100363.44
2023-04-15T16:58:35.566Z,100370.50
2023-04-15T17:01:05.477Z,100369.66
2023-04-15T17:03:35.498Z,100375.78
2023-04-15T17:06:07.980Z,100379.41
2023-04-15T17:08:37.687Z,100383.09
2023-04-15T17:11:07.404Z,100394.75
2023-04-15T17:13:45.025Z,100399.53
2023-04-15T17:16:14.763Z,100399.81
2023-04-15T17:18:44.897Z,100408.06
2023-04-15T17:21:15.361Z,100402.19
2023-04-15T17:23:45.063Z,100405.88
2023-04-15T17:26:14.827Z,100402.44
2023-04-15T17:28:47.147Z,100408.75
2023-04-15T17:31:16.903Z,100408.81
2023-04-15T17:34:00.150Z,100407.13
2023-04-15T17:36:37.337Z,100409.81
2023-04-15T17:39:07.596Z,100420.41
2023-04-15T17:41:37.476Z,100424.78
2023-04-15T17:44:09.837Z,100422.16
2023-04-15T17:46:39.638Z,100420.38
2023-04-15T17:49:09.532Z,100436.16
2023-04-15T17:51:39.221Z,100430.88
2023-04-15T17:54:11.450Z,100436.16
2023-04-15T17:56:41.252Z,100437.97
2023-04-15T17:59:13.607Z,100437.28
2023-04-15T18:01:43.559Z,100441.88
2023-04-15T18:04:13.445Z,100447.31
2023-04-15T18:06:43.426Z,100457.22
2023-04-15T18:09:13.145Z,100468.84
2023-04-15T18:11:45.152Z,100466.31
2023-04-15T18:14:26.979Z,100477.88
2023-04-15T18:17:03.192Z,100483.22
2023-04-15T18:19:33.256Z,100481.59
2023-04-15T18:22:04.169Z,100482.59
2023-04-15T18:24:33.925Z,100487.09
2023-04-15T18:27:03.919Z,100490.75
2023-04-15T18:29:37.106Z,100499.69
2023-04-15T18:32:06.907Z,100506.91
2023-04-15T18:34:36.636Z,100500.06
2023-04-15T18:37:06.514Z,100509.03
2023-04-15T18:39:36.234Z,100504.75
2023-04-15T18:42:06.189Z,100507.50
2023-04-15T18:44:38.558Z,100508.44
2023-04-15T18:47:08.268Z,100515.53
2023-04-15T18:49:38.047Z,100521.69
2023-04-15T18:52:07.841Z,100524.44
2023-04-15T18:54:37.532Z,100530.59
2023-04-15T18:57:07.265Z,100532.28
2023-04-15T18:59:39.837Z,100538.50
2023-04-15T19:02:09.559Z,100534.19
2023-04-15T19:04:39.375Z,100533.41
2023-04-15T19:07:09.863Z,100539.63
2023-04-15T19:09:39.774Z,100542.31
2023-04-15T19:12:09.545Z,100545.84
2023-04-15T19:14:41.816Z,100547.63
2023-04-15T19:17:11.532Z,100546.75
2023-04-15T19:19:41.336Z,100549.38
2023-04-15T19:22:11.386Z,100557.34
2023-04-15T19:24:41.081Z,100557.44
2023-04-15T19:27:10.769Z,100560.97
2023-04-15T19:29:43.007Z,100566.28
2023-04-15T19:32:14.193Z,100570.75
2023-04-15T19:34:43.882Z,100572.53
2023-04-15T19:37:14.831Z,100586.59
2023-04-15T19:39:44.505Z,100578.69
2023-04-15T19:42:14.215Z,100589.25
2023-04-15T19:44:46.748Z,100587.50
2023-04-15T19:47:16.550Z,100586.63
2023-04-15T19:49:46.415Z,100590.09
2023-04-15T19:52:16.235Z,100593.53
2023-04-15T19:54:45.930Z,100597.00
2023-04-15T19:57:15.692Z,100596.09
2023-04-15T19:59:47.962Z,100600.50
2023-04-15T20:02:17.714Z,100601.44
2023-04-15T20:04:47.574Z,100603.13
2023-04-15T20:07:17.585Z,100610.13
2023-04-15T20:09:47.368Z,100609.25
2023-04-15T20:12:50.161Z,100604.78
2023-04-15T20:15:12.247Z,100611.78
2023-04-15T20:17:42.346Z,100617.88
2023-04-15T20:20:12.616Z,100613.50
2023-04-15T20:22:42.494Z,100617.16
2023-04-15T20:25:12.695Z,100618.94
2023-04-15T20:27:42.491Z,100622.50
2023-04-15T20:30:15.066Z,100624.31
2023-04-15T20:32:44.796Z,100619.94
2023-04-15T20:35:14.544Z,100616.41
2023-04-15T20:37:46.477Z,100618.19
2023-04-15T20:40:17.186Z,100623.41
2023-04-15T20:42:46.901Z,100627.72
2023-04-15T20:45:19.334Z,100620.63
2023-04-15T20:47:49.104Z,100610.13
2023-04-15T20:50:18.782Z,100622.50
2023-04-15T20:52:48.513Z,100616.41
2023-04-15T20:55:18.208Z,100619.13
2023-04-15T20:57:48.618Z,100622.75
2023-04-15T21:00:21.272Z,100623.66
2023-04-15T21:02:51.148Z,100623.69
2023-04-15T21:05:21.091Z,100618.47
2023-04-15T21:07:50.850Z,100622.91
2023-04-15T21:10:20.810Z,100629.97
2023-04-15T21:12:50.651Z,100638.75
2023-04-15T21:15:22.992Z,100639.63
2023-04-15T21:17:52.768Z,100631.78
2023-04-15T21:20:22.699Z,100640.59
2023-04-15T21:22:53.088Z,100643.22
2023-04-15T21:25:22.895Z,100649.44
2023-04-15T21:27:52.579Z,100662.59
2023-04-15T21:30:25.678Z,100663.50
2023-04-15T21:32:55.917Z,100662.66
2023-04-15T21:35:25.703Z,100656.50
2023-04-15T21:37:55.401Z,100664.34
2023-04-15T21:40:25.095Z,100659.97
2023-04-15T21:42:54.822Z,100663.41
2023-04-15T21:45:27.209Z,100665.09
2023-04-15T21:48:07.211Z,100674.78
2023-04-15T21:50:38.963Z,100670.41
2023-04-15T21:53:10.743Z,100676.53
2023-04-15T21:55:40.574Z,100679.16
2023-04-15T21:58:10.275Z,100687.06
2023-04-15T22:00:42.822Z,100686.13
2023-04-15T22:03:12.647Z,100689.66
2023-04-15T22:05:42.822Z,100692.25
2023-04-15T22:08:12.517Z,100704.47
2023-04-15T22:10:42.269Z,100696.53
2023-04-15T22:13:12.990Z,100703.53
2023-04-15T22:15:45.447Z,100701.81
2023-04-15T22:18:15.719Z,100706.19
2023-04-15T22:20:45.661Z,100707.13
2023-04-15T22:23:17.517Z,100699.22
2023-04-15T22:25:47.443Z,100703.59
2023-04-15T22:28:17.160Z,100704.53
2023-04-15T22:30:49.449Z,100708.06
2023-04-15T22:33:19.165Z,100713.28
2023-04-15T22:35:48.864Z,100708.88
2023-04-15T22:38:18.580Z,100709.72
2023-04-15T22:40:48.765Z,100716.72
2023-04-15T22:43:18.444Z,100714.94
2023-04-15T22:45:55.253Z,100718.44
2023-04-15T22:48:25.319Z,100721.00
2023-04-15T22:50:55.032Z,100723.59
2023-04-15T22:53:24.766Z,100725.31
2023-04-15T22:55:54.473Z,100733.19
2023-04-15T22:58:24.168Z,100728.78
2023-04-15T23:00:56.652Z,100726.16
2023-04-15T23:03:26.456Z,100729.63
2023-04-15T23:05:56.322Z,100733.13
2023-04-15T23:08:26.425Z,100734.84
2023-04-15T23:10:56.191Z,100735.72
2023-04-15T23:13:26.051Z,100743.53
2023-04-15T23:15:58.378Z,100735.63
2023-04-15T23:18:28.103Z,100740.00
2023-04-15T23:20:57.947Z,100742.63
2023-04-15T23:23:27.744Z,100744.38
2023-04-15T23:25:57.433Z,100748.72
2023-04-15T23:28:27.211Z,100747.00
2023-04-15T23:31:00.687Z,100750.56
2023-04-15T23:33:30.545Z,100747.09
2023-04-15T23:36:00.247Z,100754.13
2023-04-15T23:38:29.993Z,100751.38
2023-04-15T23:41:00.062Z,100756.63
2023-04-15T23:43:29.735Z,100753.97
2023-04-15T23:46:02.282Z,100753.97
2023-04-15T23:48:31.976Z,100750.50
2023-04-15T23:51:01.890Z,100749.63
2023-04-15T23:53:31.855Z,100753.97
2023-04-15T23:56:01.557Z,100755.69
2023-04-15T23:58:33.432Z,100753.00
